Main page
METAR-TAF:

METAR-TAF

Airports :

Dax, France

Aérodrome de Dax - Seyresse

latitude: 43-41N, longitude: 001-04W, elevation: 32 m

Current weather observation

The report was made 9 minutes ago, at 04:30 UTC
Calm wind
Temperature 7°C
Humidity 93%
Pressure 1011 hPa

METAR: LFBY 270430Z AUTO 00000KT //// // ////// 07/06 Q1011

Time: 06:39 (04:39 UTC)

Forecast

The report was made 20 hours and 39 minutes ago, at 08:00 UTC
Forecast valid from 26 at 09 UTC to 26 at 18 UTC
Wind 4 kt from the East
Visibility: 6000 m
Few clouds at a height of 2000 ft
Scattered clouds at a height of 4000 ft
Becoming
from 26 at 09 UTC to 26 at 11 UTC
Visibility 10 km or more
Scattered clouds at a height of 4000 ft

TAF: LFBY 260800Z 2609/2618 08004KT 6000 FEW020 SCT040 BECMG 2609/2611 9999 SCT040

Weather observations and forecasts of more than 4000 airports (METAR and TAF reports).

The available stations are represented by yellow and red dots on the map.

Hover mouse over dot to see the name of the station.

Then click to see weather observations and forecasts.

To change the map : click on the green buttons with a black cross to zoom in, on the green button with a dash to zoom out, or on the green arrows for adjacent maps.


METAR-TAF: